Nissyomaru — JD2650 — position and weather

sailwx.info

Track history (hours):
 
Tides and Currents Weather Stations Pressure Air Temp Water Temp Dewpoint Dewpoint Depression Visibility Wind Speed Wind Dir Waves Ship Positions

Nissyomaru

Last reported at 2014-Oct-27 16:29 UTC. Time now 2014-Nov-01 13:12 UTC.
Position N 33°57' E 135°01'.

Length 75 m; draft 4 m.

Type: Cargo ship. MMSI: 431000572.

Date/timePositionNaut miles runAvg speedWind from/ knotsBaromVisibWave heightAir tempDewpointWater temp
2014-Oct-27 16:29N 33°57' E 135°01'1313.6
2014-Oct-27 15:33N 34°10' E 134°60'1312.6
2014-Oct-27 14:32N 34°23' E 135°02'1313.3
2014-Oct-27 13:33N 34°32' E 135°13'11 9.4
2014-Oct-27 12:22N 34°42' E 135°18'0 0.0
2014-Oct-27 11:28N 34°42' E 135°18'0 0.0
2014-Oct-27 10:28N 34°42' E 135°18'0 0.0
2014-Oct-27 09:28N 34°42' E 135°18'0 0.0
2014-Oct-27 08:22N 34°42' E 135°18'0 0.3
2014-Oct-27 07:23N 34°42' E 135°17'1 1.3
2014-Oct-27 06:27N 34°41' E 135°18'0 0.0
2014-Oct-27 05:27N 34°41' E 135°18'0 0.1
2014-Oct-27 04:33N 34°41' E 135°18'0 0.2
2014-Oct-27 03:05N 34°41' E 135°19'0 0.0
2014-Oct-27 02:23N 34°41' E 135°19'0 0.0
2014-Oct-27 01:29N 34°41' E 135°19'0 0.0
2014-Oct-27 00:23N 34°41' E 135°19'0 0.0
2014-Oct-26 23:29N 34°41' E 135°19'0 0.1
2014-Oct-26 22:29N 34°41' E 135°19'0 0.0
2014-Oct-26 21:29N 34°41' E 135°19'0 0.0
2014-Oct-26 20:29N 34°41' E 135°19'0 0.0
2014-Oct-26 19:29N 34°41' E 135°19'0 0.0
2014-Oct-26 18:29N 34°41' E 135°19'0 0.0
2014-Oct-26 17:29N 34°41' E 135°19'0 0.0
2014-Oct-26 16:23N 34°41' E 135°19'0 0.0
2014-Oct-26 15:29N 34°41' E 135°19'0 0.0
2014-Oct-26 14:29N 34°41' E 135°19'0 0.1
2014-Oct-26 13:29N 34°41' E 135°19'0 0.1
2014-Oct-26 12:29N 34°41' E 135°19'0 0.0
2014-Oct-26 11:11N 34°41' E 135°19'0 0.1
2014-Oct-26 10:29N 34°41' E 135°19'0 0.0
2014-Oct-26 09:23N 34°41' E 135°19'0 0.1
2014-Oct-26 08:29N 34°41' E 135°19'0 0.0
2014-Oct-26 07:23N 34°41' E 135°19'0 0.1
2014-Oct-26 06:29N 34°41' E 135°19'0 0.0
2014-Oct-26 05:29N 34°41' E 135°19'0 0.0
2014-Oct-26 04:29N 34°41' E 135°19'0 0.0
2014-Oct-26 03:29N 34°41' E 135°19'0 0.1
2014-Oct-26 02:29N 34°41' E 135°19'1 1.2
2014-Oct-26 01:33N 34°40' E 135°19'1211.7
2014-Oct-26 00:33N 34°30' E 135°11'1412.7
2014-Oct-25 23:28N 34°19' E 135°01'1212.7
2014-Oct-25 22:32N 34°08' E 134°60'  
2014-Oct-18 10:13N 35°04' E 139°44'913.4
2014-Oct-18 09:33N 35°13' E 139°47'1111.3
2014-Oct-18 08:33N 35°24' E 139°43'19 1.2
2014-Oct-17 17:15N 35°34' E 140°02'812.0
2014-Oct-17 16:33N 35°30' E 139°53'  
Track history (hours):
 
Tides and Currents Weather Stations Pressure Air Temp Water Temp Dewpoint Dewpoint Depression Visibility Wind Speed Wind Dir Waves Ship Positions

Nissyomaru

Last reported at 2014-Oct-27 16:29 UTC. Time now 2014-Nov-01 13:12 UTC.
Position N 33°57' E 135°01'.

Length 75 m; draft 4 m.

Type: Cargo ship. MMSI: 431000572.

Date/timePositionNaut miles runAvg speedWind from/ knotsBaromVisibWave heightAir tempDewpointWater temp
2014-Oct-27 16:29N 33°57' E 135°01'1313.6
2014-Oct-27 15:33N 34°10' E 134°60'1312.6
2014-Oct-27 14:32N 34°23' E 135°02'1313.3
2014-Oct-27 13:33N 34°32' E 135°13'11 9.4
2014-Oct-27 12:22N 34°42' E 135°18'0 0.0
2014-Oct-27 11:28N 34°42' E 135°18'0 0.0
2014-Oct-27 10:28N 34°42' E 135°18'0 0.0
2014-Oct-27 09:28N 34°42' E 135°18'0 0.0
2014-Oct-27 08:22N 34°42' E 135°18'0 0.3
2014-Oct-27 07:23N 34°42' E 135°17'1 1.3
2014-Oct-27 06:27N 34°41' E 135°18'0 0.0
2014-Oct-27 05:27N 34°41' E 135°18'0 0.1
2014-Oct-27 04:33N 34°41' E 135°18'0 0.2
2014-Oct-27 03:05N 34°41' E 135°19'0 0.0
2014-Oct-27 02:23N 34°41' E 135°19'0 0.0
2014-Oct-27 01:29N 34°41' E 135°19'0 0.0
2014-Oct-27 00:23N 34°41' E 135°19'0 0.0
2014-Oct-26 23:29N 34°41' E 135°19'0 0.1
2014-Oct-26 22:29N 34°41' E 135°19'0 0.0
2014-Oct-26 21:29N 34°41' E 135°19'0 0.0
2014-Oct-26 20:29N 34°41' E 135°19'0 0.0
2014-Oct-26 19:29N 34°41' E 135°19'0 0.0
2014-Oct-26 18:29N 34°41' E 135°19'0 0.0
2014-Oct-26 17:29N 34°41' E 135°19'0 0.0
2014-Oct-26 16:23N 34°41' E 135°19'0 0.0
2014-Oct-26 15:29N 34°41' E 135°19'0 0.0
2014-Oct-26 14:29N 34°41' E 135°19'0 0.1
2014-Oct-26 13:29N 34°41' E 135°19'0 0.1
2014-Oct-26 12:29N 34°41' E 135°19'0 0.0
2014-Oct-26 11:11N 34°41' E 135°19'0 0.1
2014-Oct-26 10:29N 34°41' E 135°19'0 0.0
2014-Oct-26 09:23N 34°41' E 135°19'0 0.1
2014-Oct-26 08:29N 34°41' E 135°19'0 0.0
2014-Oct-26 07:23N 34°41' E 135°19'0 0.1
2014-Oct-26 06:29N 34°41' E 135°19'0 0.0
2014-Oct-26 05:29N 34°41' E 135°19'0 0.0
2014-Oct-26 04:29N 34°41' E 135°19'0 0.0
2014-Oct-26 03:29N 34°41' E 135°19'0 0.1
2014-Oct-26 02:29N 34°41' E 135°19'1 1.2
2014-Oct-26 01:33N 34°40' E 135°19'1211.7
2014-Oct-26 00:33N 34°30' E 135°11'1412.7
2014-Oct-25 23:28N 34°19' E 135°01'1212.7
2014-Oct-25 22:32N 34°08' E 134°60'  
2014-Oct-18 10:13N 35°04' E 139°44'913.4
2014-Oct-18 09:33N 35°13' E 139°47'1111.3
2014-Oct-18 08:33N 35°24' E 139°43'19 1.2
2014-Oct-17 17:15N 35°34' E 140°02'812.0
2014-Oct-17 16:33N 35°30' E 139°53'  

Dump ship's entire track history